sensor_id;sensor_type;location;lat;lon;timestamp;pressure;altitude;pressure_sealevel;temperature;humidity
76998;BME280;65930;48.874;10.734;2024-02-28T00:00:46;95919.63;;;4.95;100.00
76998;BME280;65930;48.874;10.734;2024-02-28T00:03:14;95922.38;;;4.95;100.00
76998;BME280;65930;48.874;10.734;2024-02-28T00:05:43;95917.88;;;4.83;100.00
76998;BME280;65930;48.874;10.734;2024-02-28T00:08:12;95907.75;;;4.87;100.00
76998;BME280;65930;48.874;10.734;2024-02-28T00:10:40;95911.78;;;4.93;100.00
76998;BME280;65930;48.874;10.734;2024-02-28T00:13:08;95900.56;;;4.79;100.00
76998;BME280;65930;48.874;10.734;2024-02-28T00:15:40;95901.41;;;4.83;100.00
76998;BME280;65930;48.874;10.734;2024-02-28T00:18:08;95901.38;;;4.79;100.00
76998;BME280;65930;48.874;10.734;2024-02-28T00:20:37;95909.66;;;4.83;100.00
76998;BME280;65930;48.874;10.734;2024-02-28T00:23:05;95916.44;;;4.89;100.00
76998;BME280;65930;48.874;10.734;2024-02-28T00:25:33;95914.69;;;4.81;100.00
76998;BME280;65930;48.874;10.734;2024-02-28T00:28:01;95916.19;;;4.75;100.00
76998;BME280;65930;48.874;10.734;2024-02-28T00:30:30;95914.28;;;4.79;100.00
76998;BME280;65930;48.874;10.734;2024-02-28T00:33:01;95915.81;;;4.76;100.00
76998;BME280;65930;48.874;10.734;2024-02-28T00:35:33;95914.41;;;4.86;100.00
76998;BME280;65930;48.874;10.734;2024-02-28T00:38:01;95926.91;;;4.83;100.00
76998;BME280;65930;48.874;10.734;2024-02-28T00:40:29;95910.25;;;4.96;100.00
76998;BME280;65930;48.874;10.734;2024-02-28T00:42:58;95914.59;;;4.97;100.00
76998;BME280;65930;48.874;10.734;2024-02-28T00:45:26;95910.25;;;4.96;100.00
76998;BME280;65930;48.874;10.734;2024-02-28T00:47:55;95929.72;;;4.87;100.00
76998;BME280;65930;48.874;10.734;2024-02-28T00:50:24;95924.72;;;4.93;100.00
76998;BME280;65930;48.874;10.734;2024-02-28T00:52:52;95930.16;;;4.89;100.00
76998;BME280;65930;48.874;10.734;2024-02-28T00:55:20;95923.69;;;4.78;100.00
76998;BME280;65930;48.874;10.734;2024-02-28T00:57:48;95920.94;;;4.78;100.00
76998;BME280;65930;48.874;10.734;2024-02-28T01:00:16;95930.31;;;4.77;100.00
76998;BME280;65930;48.874;10.734;2024-02-28T01:02:45;95924.91;;;4.80;100.00
76998;BME280;65930;48.874;10.734;2024-02-28T01:05:13;95925.53;;;4.70;100.00
76998;BME280;65930;48.874;10.734;2024-02-28T01:07:42;95924.13;;;4.80;100.00
76998;BME280;65930;48.874;10.734;2024-02-28T01:10:10;95929.97;;;4.56;100.00
76998;BME280;65930;48.874;10.734;2024-02-28T01:12:38;95925.44;;;4.67;100.00
76998;BME280;65930;48.874;10.734;2024-02-28T01:15:07;95920.50;;;4.53;100.00
76998;BME280;65930;48.874;10.734;2024-02-28T01:17:35;95917.19;;;4.67;100.00
76998;BME280;65930;48.874;10.734;2024-02-28T01:20:03;95925.53;;;4.70;100.00
76998;BME280;65930;48.874;10.734;2024-02-28T01:22:31;95927.22;;;4.56;100.00
76998;BME280;65930;48.874;10.734;2024-02-28T01:25:02;95931.75;;;4.48;100.00
76998;BME280;65930;48.874;10.734;2024-02-28T01:27:30;95925.91;;;4.50;100.00
76998;BME280;65930;48.874;10.734;2024-02-28T01:29:58;95936.03;;;4.46;100.00
76998;BME280;65930;48.874;10.734;2024-02-28T01:32:27;95928.97;;;4.44;100.00
76998;BME280;65930;48.874;10.734;2024-02-28T01:34:56;95927.81;;;4.46;100.00
76998;BME280;65930;48.874;10.734;2024-02-28T01:37:24;95941.41;;;4.38;100.00
76998;BME280;65930;48.874;10.734;2024-02-28T01:39:52;95935.78;;;4.31;100.00
76998;BME280;65930;48.874;10.734;2024-02-28T01:42:21;95946.88;;;4.38;100.00
76998;BME280;65930;48.874;10.734;2024-02-28T01:44:49;95943.31;;;4.57;100.00
76998;BME280;65930;48.874;10.734;2024-02-28T01:47:18;95947.00;;;4.46;100.00
76998;BME280;65930;48.874;10.734;2024-02-28T01:49:47;95947.94;;;4.34;100.00
76998;BME280;65930;48.874;10.734;2024-02-28T01:52:15;95952.66;;;4.33;100.00
76998;BME280;65930;48.874;10.734;2024-02-28T01:54:42;95949.03;;;4.29;100.00
76998;BME280;65930;48.874;10.734;2024-02-28T01:57:11;95955.47;;;4.37;100.00
76998;BME280;65930;48.874;10.734;2024-02-28T01:59:41;95963.97;;;4.51;100.00
76998;BME280;65930;48.874;10.734;2024-02-28T02:02:09;95965.69;;;4.40;100.00
76998;BME280;65930;48.874;10.734;2024-02-28T02:04:37;95969.97;;;4.37;100.00
76998;BME280;65930;48.874;10.734;2024-02-28T02:07:06;95976.41;;;4.26;100.00
76998;BME280;65930;48.874;10.734;2024-02-28T02:09:34;95970.34;;;4.36;100.00
76998;BME280;65930;48.874;10.734;2024-02-28T02:12:03;95981.94;;;4.29;100.00
76998;BME280;65930;48.874;10.734;2024-02-28T02:14:31;95987.28;;;4.22;100.00
76998;BME280;65930;48.874;10.734;2024-02-28T02:17:00;95987.28;;;4.22;100.00
76998;BME280;65930;48.874;10.734;2024-02-28T02:19:28;96002.38;;;4.32;100.00
76998;BME280;65930;48.874;10.734;2024-02-28T02:21:58;95986.44;;;4.18;100.00
76998;BME280;65930;48.874;10.734;2024-02-28T02:24:28;96013.63;;;4.27;100.00
76998;BME280;65930;48.874;10.734;2024-02-28T02:26:58;96014.59;;;4.15;100.00
76998;BME280;65930;48.874;10.734;2024-02-28T02:29:26;96005.13;;;4.13;100.00
76998;BME280;65930;48.874;10.734;2024-02-28T02:31:55;96014.19;;;4.17;100.00
76998;BME280;65930;48.874;10.734;2024-02-28T02:34:23;96020.47;;;4.17;100.00
76998;BME280;65930;48.874;10.734;2024-02-28T02:36:51;96023.78;;;4.07;100.00
76998;BME280;65930;48.874;10.734;2024-02-28T02:39:19;96021.63;;;4.16;100.00
76998;BME280;65930;48.874;10.734;2024-02-28T02:41:48;96023.53;;;4.31;100.00
76998;BME280;65930;48.874;10.734;2024-02-28T02:44:17;96029.72;;;4.28;100.00
76998;BME280;65930;48.874;10.734;2024-02-28T02:46:45;96019.13;;;4.27;100.00
76998;BME280;65930;48.874;10.734;2024-02-28T02:49:12;96027.28;;;4.23;100.00
76998;BME280;65930;48.874;10.734;2024-02-28T02:51:40;96028.88;;;4.24;100.00
76998;BME280;65930;48.874;10.734;2024-02-28T02:54:10;96027.97;;;4.20;100.00
76998;BME280;65930;48.874;10.734;2024-02-28T02:56:41;96027.84;;;4.32;100.00
76998;BME280;65930;48.874;10.734;2024-02-28T02:59:10;96027.34;;;4.27;100.00
76998;BME280;65930;48.874;10.734;2024-02-28T03:01:38;96024.09;;;4.21;100.00
76998;BME280;65930;48.874;10.734;2024-02-28T03:04:06;96034.91;;;4.14;100.00
76998;BME280;65930;48.874;10.734;2024-02-28T03:06:34;96028.28;;;4.15;100.00
76998;BME280;65930;48.874;10.734;2024-02-28T03:09:02;96032.47;;;4.09;100.00
76998;BME280;65930;48.874;10.734;2024-02-28T03:11:31;96031.09;;;4.19;100.00
76998;BME280;65930;48.874;10.734;2024-02-28T03:13:59;96038.06;;;4.16;100.00
76998;BME280;65930;48.874;10.734;2024-02-28T03:16:28;96037.28;;;4.16;100.00
76998;BME280;65930;48.874;10.734;2024-02-28T03:18:56;96035.50;;;4.23;100.00
76998;BME280;65930;48.874;10.734;2024-02-28T03:21:24;96050.00;;;4.24;100.00
76998;BME280;65930;48.874;10.734;2024-02-28T03:23:52;96047.09;;;4.17;100.00
76998;BME280;65930;48.874;10.734;2024-02-28T03:26:20;96056.41;;;4.12;100.00
76998;BME280;65930;48.874;10.734;2024-02-28T03:28:48;96051.19;;;4.07;100.00
76998;BME280;65930;48.874;10.734;2024-02-28T03:31:16;96050.59;;;3.98;100.00
76998;BME280;65930;48.874;10.734;2024-02-28T03:33:49;96046.09;;;4.06;100.00
76998;BME280;65930;48.874;10.734;2024-02-28T03:36:17;96054.22;;;4.02;100.00
76998;BME280;65930;48.874;10.734;2024-02-28T03:38:45;96058.84;;;3.98;100.00
76998;BME280;65930;48.874;10.734;2024-02-28T03:41:16;96056.47;;;3.96;100.00
76998;BME280;65930;48.874;10.734;2024-02-28T03:43:44;96052.41;;;3.90;100.00
76998;BME280;65930;48.874;10.734;2024-02-28T03:46:12;96058.13;;;4.01;100.00
76998;BME280;65930;48.874;10.734;2024-02-28T03:48:40;96064.59;;;3.93;100.00
76998;BME280;65930;48.874;10.734;2024-02-28T03:51:10;96064.06;;;3.87;100.00
76998;BME280;65930;48.874;10.734;2024-02-28T03:53:38;96071.47;;;4.03;100.00
76998;BME280;65930;48.874;10.734;2024-02-28T03:56:08;96060.25;;;3.92;100.00
76998;BME280;65930;48.874;10.734;2024-02-28T03:58:36;96071.94;;;3.89;100.00
76998;BME280;65930;48.874;10.734;2024-02-28T04:01:03;96082.19;;;3.92;100.00
76998;BME280;65930;48.874;10.734;2024-02-28T04:03:32;96082.63;;;3.94;100.00
76998;BME280;65930;48.874;10.734;2024-02-28T04:06:00;96073.53;;;3.90;100.00
76998;BME280;65930;48.874;10.734;2024-02-28T04:08:29;96073.47;;;3.86;100.00
76998;BME280;65930;48.874;10.734;2024-02-28T04:10:57;96081.56;;;3.83;100.00
76998;BME280;65930;48.874;10.734;2024-02-28T04:13:25;96075.66;;;3.81;100.00
76998;BME280;65930;48.874;10.734;2024-02-28T04:15:53;96074.88;;;3.80;100.00
76998;BME280;65930;48.874;10.734;2024-02-28T04:18:21;96081.06;;;3.77;100.00
76998;BME280;65930;48.874;10.734;2024-02-28T04:20:49;96088.22;;;3.82;100.00
76998;BME280;65930;48.874;10.734;2024-02-28T04:23:17;96088.16;;;3.63;100.00
76998;BME280;65930;48.874;10.734;2024-02-28T04:25:46;96089.13;;;3.70;100.00
76998;BME280;65930;48.874;10.734;2024-02-28T04:28:14;96091.78;;;3.67;100.00
76998;BME280;65930;48.874;10.734;2024-02-28T04:30:42;96094.78;;;3.62;100.00
76998;BME280;65930;48.874;10.734;2024-02-28T04:33:10;96101.84;;;3.63;100.00
76998;BME280;65930;48.874;10.734;2024-02-28T04:35:38;96102.28;;;3.65;100.00
76998;BME280;65930;48.874;10.734;2024-02-28T04:38:06;96102.47;;;3.56;100.00
76998;BME280;65930;48.874;10.734;2024-02-28T04:40:35;96098.13;;;3.55;100.00
76998;BME280;65930;48.874;10.734;2024-02-28T04:43:04;96103.00;;;3.46;100.00
76998;BME280;65930;48.874;10.734;2024-02-28T04:45:32;96100.78;;;3.51;100.00
76998;BME280;65930;48.874;10.734;2024-02-28T04:48:00;96098.59;;;3.57;100.00
76998;BME280;65930;48.874;10.734;2024-02-28T04:50:28;96106.44;;;3.74;100.00
76998;BME280;65930;48.874;10.734;2024-02-28T04:52:56;96108.72;;;3.41;100.00
76998;BME280;65930;48.874;10.734;2024-02-28T04:55:24;96110.06;;;3.31;100.00
76998;BME280;65930;48.874;10.734;2024-02-28T04:57:52;96106.53;;;3.46;100.00
76998;BME280;65930;48.874;10.734;2024-02-28T05:00:22;96106.97;;;3.33;100.00
76998;BME280;65930;48.874;10.734;2024-02-28T05:02:50;96115.28;;;3.36;100.00
76998;BME280;65930;48.874;10.734;2024-02-28T05:05:18;96105.75;;;3.30;100.00
76998;BME280;65930;48.874;10.734;2024-02-28T05:07:46;96106.63;;;3.34;100.00
76998;BME280;65930;48.874;10.734;2024-02-28T05:10:14;96105.81;;;3.18;100.00
76998;BME280;65930;48.874;10.734;2024-02-28T05:12:42;96105.13;;;3.21;100.00
76998;BME280;65930;48.874;10.734;2024-02-28T05:15:10;96106.97;;;3.17;100.00
76998;BME280;65930;48.874;10.734;2024-02-28T05:17:39;96118.97;;;3.13;100.00
76998;BME280;65930;48.874;10.734;2024-02-28T05:20:08;96107.31;;;3.16;100.00
76998;BME280;65930;48.874;10.734;2024-02-28T05:22:36;96109.25;;;3.15;100.00
76998;BME280;65930;48.874;10.734;2024-02-28T05:25:07;96110.13;;;3.19;100.00
76998;BME280;65930;48.874;10.734;2024-02-28T05:27:35;96116.50;;;3.23;100.00
76998;BME280;65930;48.874;10.734;2024-02-28T05:30:03;96127.44;;;3.23;100.00
76998;BME280;65930;48.874;10.734;2024-02-28T05:32:32;96122.72;;;3.36;100.00
76998;BME280;65930;48.874;10.734;2024-02-28T05:35:05;96122.44;;;3.41;100.00
76998;BME280;65930;48.874;10.734;2024-02-28T05:37:33;96132.16;;;3.38;100.00
76998;BME280;65930;48.874;10.734;2024-02-28T05:40:08;96141.97;;;3.39;100.00
76998;BME280;65930;48.874;10.734;2024-02-28T05:42:39;96140.38;;;3.38;100.00
76998;BME280;65930;48.874;10.734;2024-02-28T05:45:09;96148.91;;;3.21;100.00
76998;BME280;65930;48.874;10.734;2024-02-28T05:47:39;96155.91;;;3.34;100.00
76998;BME280;65930;48.874;10.734;2024-02-28T05:50:09;96156.50;;;3.28;100.00
76998;BME280;65930;48.874;10.734;2024-02-28T05:52:37;96150.50;;;3.22;100.00
76998;BME280;65930;48.874;10.734;2024-02-28T05:55:09;96161.72;;;3.33;100.00
76998;BME280;65930;48.874;10.734;2024-02-28T05:57:38;96172.34;;;3.34;100.00
76998;BME280;65930;48.874;10.734;2024-02-28T06:00:07;96171.97;;;3.20;100.00
76998;BME280;65930;48.874;10.734;2024-02-28T06:02:37;96167.66;;;3.35;100.00
76998;BME280;65930;48.874;10.734;2024-02-28T06:05:09;96173.94;;;3.35;100.00
76998;BME280;65930;48.874;10.734;2024-02-28T06:07:37;96179.16;;;3.40;100.00
76998;BME280;65930;48.874;10.734;2024-02-28T06:10:05;96191.59;;;3.38;100.00
76998;BME280;65930;48.874;10.734;2024-02-28T06:12:33;96194.78;;;3.55;100.00
76998;BME280;65930;48.874;10.734;2024-02-28T06:15:01;96197.72;;;3.63;100.00
76998;BME280;65930;48.874;10.734;2024-02-28T06:17:30;96200.63;;;3.54;100.00
76998;BME280;65930;48.874;10.734;2024-02-28T06:19:58;96207.94;;;3.50;100.00
76998;BME280;65930;48.874;10.734;2024-02-28T06:22:27;96214.25;;;3.23;100.00
76998;BME280;65930;48.874;10.734;2024-02-28T06:24:55;96225.88;;;3.47;100.00
76998;BME280;65930;48.874;10.734;2024-02-28T06:27:24;96229.69;;;3.43;100.00
76998;BME280;65930;48.874;10.734;2024-02-28T06:29:58;96231.88;;;3.37;100.00
76998;BME280;65930;48.874;10.734;2024-02-28T06:32:26;96234.06;;;3.32;100.00
76998;BME280;65930;48.874;10.734;2024-02-28T06:34:54;96243.72;;;3.41;100.00
76998;BME280;65930;48.874;10.734;2024-02-28T06:37:23;96235.75;;;3.36;100.00
76998;BME280;65930;48.874;10.734;2024-02-28T06:39:52;96242.56;;;3.42;100.00
76998;BME280;65930;48.874;10.734;2024-02-28T06:42:21;96246.59;;;3.33;100.00
76998;BME280;65930;48.874;10.734;2024-02-28T06:44:49;96248.91;;;3.31;100.00
76998;BME280;65930;48.874;10.734;2024-02-28T06:47:17;96257.16;;;3.46;100.00
76998;BME280;65930;48.874;10.734;2024-02-28T06:49:45;96258.69;;;3.60;100.00
76998;BME280;65930;48.874;10.734;2024-02-28T06:52:13;96260.94;;;3.42;100.00
76998;BME280;65930;48.874;10.734;2024-02-28T06:54:41;96255.31;;;3.50;100.00
76998;BME280;65930;48.874;10.734;2024-02-28T06:57:10;96264.28;;;3.63;100.00
76998;BME280;65930;48.874;10.734;2024-02-28T06:59:39;96255.34;;;3.66;100.00
76998;BME280;65930;48.874;10.734;2024-02-28T07:02:07;96261.88;;;3.62;100.00
76998;BME280;65930;48.874;10.734;2024-02-28T07:04:38;96259.13;;;3.62;100.00
76998;BME280;65930;48.874;10.734;2024-02-28T07:07:07;96273.09;;;3.57;100.00
76998;BME280;65930;48.874;10.734;2024-02-28T07:09:38;96270.09;;;3.62;100.00
76998;BME280;65930;48.874;10.734;2024-02-28T07:12:07;96276.78;;;3.64;100.00
76998;BME280;65930;48.874;10.734;2024-02-28T07:14:36;96270.59;;;3.51;100.00
76998;BME280;65930;48.874;10.734;2024-02-28T07:17:05;96280.50;;;3.56;100.00
76998;BME280;65930;48.874;10.734;2024-02-28T07:19:33;96282.00;;;3.53;100.00
76998;BME280;65930;48.874;10.734;2024-02-28T07:22:01;96286.13;;;3.47;100.00
76998;BME280;65930;48.874;10.734;2024-02-28T07:24:30;96292.59;;;3.55;100.00
76998;BME280;65930;48.874;10.734;2024-02-28T07:26:58;96291.31;;;3.37;100.00
76998;BME280;65930;48.874;10.734;2024-02-28T07:29:26;96292.81;;;3.34;100.00
76998;BME280;65930;48.874;10.734;2024-02-28T07:31:56;96310.63;;;3.56;100.00
76998;BME280;65930;48.874;10.734;2024-02-28T07:34:24;96314.31;;;3.48;100.00
76998;BME280;65930;48.874;10.734;2024-02-28T07:36:52;96300.28;;;3.49;100.00
76998;BME280;65930;48.874;10.734;2024-02-28T07:39:21;96298.47;;;3.41;100.00
76998;BME280;65930;48.874;10.734;2024-02-28T07:41:49;96296.19;;;3.43;100.00
76998;BME280;65930;48.874;10.734;2024-02-28T07:44:21;96297.56;;;3.65;100.00
76998;BME280;65930;48.874;10.734;2024-02-28T07:46:49;96303.13;;;3.69;100.00
76998;BME280;65930;48.874;10.734;2024-02-28T07:49:19;96308.91;;;3.64;100.00
76998;BME280;65930;48.874;10.734;2024-02-28T07:51:50;96309.31;;;3.66;100.00
76998;BME280;65930;48.874;10.734;2024-02-28T07:54:18;96312.53;;;3.68;100.00
76998;BME280;65930;48.874;10.734;2024-02-28T07:56:46;96313.13;;;3.61;100.00
76998;BME280;65930;48.874;10.734;2024-02-28T07:59:14;96307.34;;;3.50;100.00
76998;BME280;65930;48.874;10.734;2024-02-28T08:01:42;96310.63;;;3.56;100.00
76998;BME280;65930;48.874;10.734;2024-02-28T08:04:10;96313.91;;;3.62;100.00
76998;BME280;65930;48.874;10.734;2024-02-28T08:06:41;96315.44;;;3.59;100.00
76998;BME280;65930;48.874;10.734;2024-02-28T08:09:12;96311.63;;;3.64;100.00
76998;BME280;65930;48.874;10.734;2024-02-28T08:11:42;96313.72;;;3.54;100.00
76998;BME280;65930;48.874;10.734;2024-02-28T08:14:13;96315.94;;;3.65;100.00
76998;BME280;65930;48.874;10.734;2024-02-28T08:16:41;96312.53;;;3.68;100.00
76998;BME280;65930;48.874;10.734;2024-02-28T08:19:09;96323.66;;;3.47;100.00
76998;BME280;65930;48.874;10.734;2024-02-28T08:21:37;96313.72;;;3.54;100.00
76998;BME280;65930;48.874;10.734;2024-02-28T08:24:07;96312.72;;;3.75;100.00
76998;BME280;65930;48.874;10.734;2024-02-28T08:26:35;96312.47;;;3.80;100.00
76998;BME280;65930;48.874;10.734;2024-02-28T08:29:03;96307.63;;;3.89;100.00
76998;BME280;65930;48.874;10.734;2024-02-28T08:31:31;96307.34;;;3.94;100.00
76998;BME280;65930;48.874;10.734;2024-02-28T08:33:59;96313.81;;;4.02;100.00
76998;BME280;65930;48.874;10.734;2024-02-28T08:36:30;96315.56;;;3.94;100.00
76998;BME280;65930;48.874;10.734;2024-02-28T08:38:58;96313.25;;;3.80;100.00
76998;BME280;65930;48.874;10.734;2024-02-28T08:41:27;96311.31;;;3.81;100.00
76998;BME280;65930;48.874;10.734;2024-02-28T08:43:55;96316.53;;;3.86;100.00
76998;BME280;65930;48.874;10.734;2024-02-28T08:46:23;96331.94;;;3.90;100.00
76998;BME280;65930;48.874;10.734;2024-02-28T08:48:51;96325.66;;;3.90;100.00
76998;BME280;65930;48.874;10.734;2024-02-28T08:51:19;96329.19;;;4.06;100.00
76998;BME280;65930;48.874;10.734;2024-02-28T08:53:48;96323.81;;;3.94;100.00
76998;BME280;65930;48.874;10.734;2024-02-28T08:56:18;96324.69;;;3.98;100.00
76998;BME280;65930;48.874;10.734;2024-02-28T08:58:48;96331.69;;;4.11;100.00
76998;BME280;65930;48.874;10.734;2024-02-28T09:01:16;96324.75;;;3.86;100.00
76998;BME280;65930;48.874;10.734;2024-02-28T09:03:44;96334.31;;;3.92;100.00
76998;BME280;65930;48.874;10.734;2024-02-28T09:06:12;96331.31;;;3.97;100.00
76998;BME280;65930;48.874;10.734;2024-02-28T09:08:40;96334.41;;;3.95;100.00
76998;BME280;65930;48.874;10.734;2024-02-28T09:11:08;96332.22;;;4.01;100.00
76998;BME280;65930;48.874;10.734;2024-02-28T09:13:37;96337.63;;;4.13;100.00
76998;BME280;65930;48.874;10.734;2024-02-28T09:16:07;96330.38;;;4.36;100.00
76998;BME280;65930;48.874;10.734;2024-02-28T09:18:35;96339.50;;;4.40;100.00
76998;BME280;65930;48.874;10.734;2024-02-28T09:21:03;96349.22;;;4.22;100.00
76998;BME280;65930;48.874;10.734;2024-02-28T09:23:31;96349.94;;;4.19;100.00
76998;BME280;65930;48.874;10.734;2024-02-28T09:26:03;96350.81;;;4.23;100.00
76998;BME280;65930;48.874;10.734;2024-02-28T09:28:31;96346.72;;;4.17;100.00
76998;BME280;65930;48.874;10.734;2024-02-28T09:30:59;96347.19;;;4.35;100.00
76998;BME280;65930;48.874;10.734;2024-02-28T09:33:32;96354.78;;;4.26;100.00
76998;BME280;65930;48.874;10.734;2024-02-28T09:36:01;96351.63;;;4.24;100.00
76998;BME280;65930;48.874;10.734;2024-02-28T09:38:30;96354.88;;;4.29;100.00
76998;BME280;65930;48.874;10.734;2024-02-28T09:40:59;96350.09;;;4.26;100.00
76998;BME280;65930;48.874;10.734;2024-02-28T09:43:30;96356.28;;;4.39;100.00
76998;BME280;65930;48.874;10.734;2024-02-28T09:46:01;96355.66;;;4.30;100.00
76998;BME280;65930;48.874;10.734;2024-02-28T09:48:33;96354.09;;;4.44;100.00
76998;BME280;65930;48.874;10.734;2024-02-28T09:51:01;96357.03;;;4.52;100.00
76998;BME280;65930;48.874;10.734;2024-02-28T09:53:29;96363.56;;;4.63;100.00
76998;BME280;65930;48.874;10.734;2024-02-28T09:55:57;96363.91;;;4.46;100.00
76998;BME280;65930;48.874;10.734;2024-02-28T09:58:27;96365.97;;;4.33;100.00
76998;BME280;65930;48.874;10.734;2024-02-28T10:00:59;96365.25;;;4.52;100.00
76998;BME280;65930;48.874;10.734;2024-02-28T10:03:30;96372.94;;;4.30;100.00
76998;BME280;65930;48.874;10.734;2024-02-28T10:06:00;96372.69;;;4.51;100.00
76998;BME280;65930;48.874;10.734;2024-02-28T10:08:31;96372.25;;;4.33;100.00
76998;BME280;65930;48.874;10.734;2024-02-28T10:11:01;96375.03;;;4.21;100.00
76998;BME280;65930;48.874;10.734;2024-02-28T10:13:29;96377.78;;;4.21;100.00
76998;BME280;65930;48.874;10.734;2024-02-28T10:15:57;96385.13;;;4.17;100.00
76998;BME280;65930;48.874;10.734;2024-02-28T10:18:26;96386.56;;;4.27;100.00
76998;BME280;65930;48.874;10.734;2024-02-28T10:20:54;96390.81;;;4.24;100.00
76998;BME280;65930;48.874;10.734;2024-02-28T10:23:24;96389.31;;;4.42;100.00
76998;BME280;65930;48.874;10.734;2024-02-28T10:25:53;96388.78;;;4.53;100.00
76998;BME280;65930;48.874;10.734;2024-02-28T10:28:23;96399.84;;;4.40;100.00
76998;BME280;65930;48.874;10.734;2024-02-28T10:30:53;96399.84;;;4.40;100.00
76998;BME280;65930;48.874;10.734;2024-02-28T10:33:21;96401.16;;;4.31;100.00
76998;BME280;65930;48.874;10.734;2024-02-28T10:35:56;96402.16;;;4.38;100.00
76998;BME280;65930;48.874;10.734;2024-02-28T10:38:26;96406.75;;;4.50;100.00
76998;BME280;65930;48.874;10.734;2024-02-28T10:40:55;96410.63;;;4.49;100.00
76998;BME280;65930;48.874;10.734;2024-02-28T10:43:27;96415.38;;;4.80;100.00
76998;BME280;65930;48.874;10.734;2024-02-28T10:45:57;96418.28;;;4.56;100.00
76998;BME280;65930;48.874;10.734;2024-02-28T10:48:46;96413.84;;;4.67;100.00
76998;BME280;65930;48.874;10.734;2024-02-28T10:51:22;96413.16;;;4.70;100.00
76998;BME280;65930;48.874;10.734;2024-02-28T10:54:02;96406.75;;;4.50;100.00
76998;BME280;65930;48.874;10.734;2024-02-28T10:56:33;96413.03;;;4.51;100.00
76998;BME280;65930;48.874;10.734;2024-02-28T10:59:01;96420.38;;;4.62;100.00
76998;BME280;65930;48.874;10.734;2024-02-28T11:01:30;96409.69;;;4.57;100.00
76998;BME280;65930;48.874;10.734;2024-02-28T11:03:59;96408.69;;;4.81;100.00
76998;BME280;65930;48.874;10.734;2024-02-28T11:06:27;96410.13;;;4.75;100.00
76998;BME280;65930;48.874;10.734;2024-02-28T11:08:59;96410.75;;;4.68;100.00
76998;BME280;65930;48.874;10.734;2024-02-28T11:11:31;96408.09;;;4.56;100.00
76998;BME280;65930;48.874;10.734;2024-02-28T11:14:00;96409.97;;;4.83;100.00
76998;BME280;65930;48.874;10.734;2024-02-28T11:16:30;96412.16;;;4.62;100.00
76998;BME280;65930;48.874;10.734;2024-02-28T11:18:59;96403.47;;;4.76;100.00
76998;BME280;65930;48.874;10.734;2024-02-28T11:21:28;96405.41;;;5.07;100.00
76998;BME280;65930;48.874;10.734;2024-02-28T11:24:01;96406.88;;;4.85;100.00
76998;BME280;65930;48.874;10.734;2024-02-28T11:26:30;96412.84;;;5.06;100.00
76998;BME280;65930;48.874;10.734;2024-02-28T11:28:58;96412.16;;;4.94;100.00
76998;BME280;65930;48.874;10.734;2024-02-28T11:31:26;96412.84;;;5.06;100.00
76998;BME280;65930;48.874;10.734;2024-02-28T11:33:54;96413.66;;;5.07;100.00
76998;BME280;65930;48.874;10.734;2024-02-28T11:36:22;96414.53;;;4.95;100.00
76998;BME280;65930;48.874;10.734;2024-02-28T11:38:50;96409.38;;;5.09;100.00
76998;BME280;65930;48.874;10.734;2024-02-28T11:41:26;96414.53;;;5.26;100.00
76998;BME280;65930;48.874;10.734;2024-02-28T11:43:55;96413.78;;;5.29;100.00
76998;BME280;65930;48.874;10.734;2024-02-28T11:46:23;96421.91;;;5.42;100.00
76998;BME280;65930;48.874;10.734;2024-02-28T11:48:52;96418.34;;;5.22;100.00
76998;BME280;65930;48.874;10.734;2024-02-28T11:51:20;96433.75;;;5.26;100.00
76998;BME280;65930;48.874;10.734;2024-02-28T11:53:48;96432.75;;;5.35;100.00
76998;BME280;65930;48.874;10.734;2024-02-28T11:56:16;96428.34;;;5.14;100.00
76998;BME280;65930;48.874;10.734;2024-02-28T11:58:52;96424.94;;;5.37;100.00
76998;BME280;65930;48.874;10.734;2024-02-28T12:01:34;96421.59;;;5.27;100.00
76998;BME280;65930;48.874;10.734;2024-02-28T12:04:03;96421.16;;;5.25;100.00
76998;BME280;65930;48.874;10.734;2024-02-28T12:06:34;96425.78;;;5.21;100.00
76998;BME280;65930;48.874;10.734;2024-02-28T12:09:03;96424.78;;;5.29;100.00
76998;BME280;65930;48.874;10.734;2024-02-28T12:11:32;96418.50;;;5.29;100.00
76998;BME280;65930;48.874;10.734;2024-02-28T12:14:04;96421.22;;;5.45;100.00
76998;BME280;65930;48.874;10.734;2024-02-28T12:16:36;96416.44;;;5.61;100.00
76998;BME280;65930;48.874;10.734;2024-02-28T12:19:07;96413.50;;;5.50;100.00
76998;BME280;65930;48.874;10.734;2024-02-28T12:21:37;96411.41;;;5.28;100.00
76998;BME280;65930;48.874;10.734;2024-02-28T12:24:08;96411.09;;;5.49;100.00
76998;BME280;65930;48.874;10.734;2024-02-28T12:26:37;96421.22;;;5.45;100.00
76998;BME280;65930;48.874;10.734;2024-02-28T12:29:07;96420.81;;;5.62;100.00
76998;BME280;65930;48.874;10.734;2024-02-28T12:31:40;96425.13;;;5.28;100.00
76998;BME280;65930;48.874;10.734;2024-02-28T12:34:08;96423.03;;;5.21;100.00
76998;BME280;65930;48.874;10.734;2024-02-28T12:36:36;96424.44;;;5.15;100.00
76998;BME280;65930;48.874;10.734;2024-02-28T12:39:07;96424.19;;;5.20;100.00
76998;BME280;65930;48.874;10.734;2024-02-28T12:41:38;96423.03;;;5.21;100.00
76998;BME280;65930;48.874;10.734;2024-02-28T12:44:10;96438.63;;;5.17;100.00
76998;BME280;65930;48.874;10.734;2024-02-28T12:46:38;96430.28;;;5.29;100.00
76998;BME280;65930;48.874;10.734;2024-02-28T12:49:06;96440.53;;;5.32;100.00
76998;BME280;65930;48.874;10.734;2024-02-28T12:51:39;96435.78;;;5.29;100.00
76998;BME280;65930;48.874;10.734;2024-02-28T12:54:08;96432.22;;;5.29;100.00
76998;BME280;65930;48.874;10.734;2024-02-28T12:56:37;96425.31;;;5.19;100.00
76998;BME280;65930;48.874;10.734;2024-02-28T12:59:06;96424.28;;;5.08;100.00